Time;durP1;ratioP1;P1;durP2;ratioP2;P2;SDS_P1;SDS_P2;PMS_P1;PMS_P2;Temp;Humidity;BMP_temperature;BMP_pressure;BME280_temperature;BME280_humidity;BME280_pressure;Samples;Min_cycle;Max_cycle;Signal;HPM_P1;HPM_P2
2024/01/22 00:02:11;;;;;;;48.50;26.00;;;;;;;-2.26;91.44;101514.09;5114247;28;20436;-66
2024/01/22 00:04:38;;;;;;;44.87;28.20;;;;;;;-2.29;91.50;101519.44;5113996;28;20533;-66
2024/01/22 00:07:06;;;;;;;46.20;27.43;;;;;;;-2.31;91.38;101510.84;5113933;28;20939;-66
2024/01/22 00:09:33;;;;;;;40.70;25.30;;;;;;;-2.16;92.08;101525.81;5113964;28;20444;-66
2024/01/22 00:12:00;;;;;;;43.43;25.83;;;;;;;-2.13;91.53;101533.47;5114155;28;20497;-66
2024/01/22 00:14:26;;;;;;;43.77;24.07;;;;;;;-2.26;91.09;101534.91;5113638;28;20935;-66
2024/01/22 00:16:53;;;;;;;35.03;23.27;;;;;;;-2.27;91.12;101533.22;5114118;28;20432;-66
2024/01/22 00:19:20;;;;;;;44.27;24.37;;;;;;;-2.29;91.17;101532.47;5113509;28;20432;-65
2024/01/22 00:21:46;;;;;;;36.33;23.07;;;;;;;-2.22;91.03;101532.13;5114006;28;20444;-65
2024/01/22 00:24:14;;;;;;;41.33;24.20;;;;;;;-2.15;90.43;101535.31;5113688;28;20476;-65
2024/01/22 00:26:41;;;;;;;40.73;23.27;;;;;;;-2.11;90.37;101539.47;5113811;28;20488;-66
2024/01/22 00:29:08;;;;;;;37.60;24.03;;;;;;;-2.15;90.31;101538.75;5113667;28;20508;-65
2024/01/22 00:31:35;;;;;;;36.30;24.37;;;;;;;-2.04;90.32;101533.09;5113353;28;20456;-65
2024/01/22 00:34:01;;;;;;;37.60;23.10;;;;;;;-1.91;90.42;101534.25;5113273;28;20955;-65
2024/01/22 00:36:28;;;;;;;42.37;23.07;;;;;;;-1.86;89.56;101534.88;5113298;28;20501;-66
2024/01/22 00:38:55;;;;;;;47.23;23.97;;;;;;;-1.81;89.41;101538.09;5111807;28;20468;-66
2024/01/22 00:41:23;;;;;;;37.80;23.03;;;;;;;-1.87;88.78;101541.00;5113021;28;20900;-66
2024/01/22 00:43:49;;;;;;;35.53;22.10;;;;;;;-1.77;88.47;101535.31;5113126;28;20443;-66
2024/01/22 00:46:16;;;;;;;29.50;20.33;;;;;;;-1.77;88.12;101540.53;5113153;28;20497;-65
2024/01/22 00:48:43;;;;;;;38.27;22.30;;;;;;;-1.75;88.03;101535.25;5112898;28;20440;-66
2024/01/22 00:51:10;;;;;;;31.33;19.80;;;;;;;-1.77;87.60;101534.44;5113067;28;20457;-65
2024/01/22 00:53:36;;;;;;;33.40;20.33;;;;;;;-1.73;87.70;101536.00;5112958;28;20436;-66
2024/01/22 00:56:03;;;;;;;31.43;19.57;;;;;;;-1.70;87.07;101533.28;5113128;28;20440;-66
2024/01/22 00:58:31;;;;;;;31.50;20.40;;;;;;;-1.60;86.94;101537.13;5113402;28;20516;-65
2024/01/22 01:00:58;;;;;;;29.10;19.70;;;;;;;-1.55;86.81;101530.81;5113296;28;20469;-64
2024/01/22 01:03:25;;;;;;;29.23;18.97;;;;;;;-1.53;86.47;101536.81;5112653;28;20444;-66
2024/01/22 01:05:52;;;;;;;31.53;19.50;;;;;;;-1.50;86.72;101534.06;5112858;28;20472;-65
2024/01/22 01:08:19;;;;;;;28.43;19.07;;;;;;;-1.53;85.81;101538.56;5112923;28;20549;-64
2024/01/22 01:10:45;;;;;;;30.03;18.80;;;;;;;-1.55;86.38;101536.03;5112598;28;20451;-64
2024/01/22 01:13:12;;;;;;;31.63;20.13;;;;;;;-1.49;86.27;101532.28;5113069;28;20440;-64
2024/01/22 01:15:40;;;;;;;30.33;17.87;;;;;;;-1.43;86.10;101529.41;5112485;28;20473;-65
2024/01/22 01:18:07;;;;;;;25.53;17.00;;;;;;;-1.35;85.31;101532.53;5113168;28;20481;-65
2024/01/22 01:20:34;;;;;;;30.97;17.60;;;;;;;-1.39;85.00;101525.75;5112455;28;20503;-65
2024/01/22 01:23:01;;;;;;;31.83;18.67;;;;;;;-1.48;84.12;101531.38;5112533;28;20440;-66
2024/01/22 01:25:28;;;;;;;31.47;18.83;;;;;;;-1.48;84.88;101532.22;5112555;28;20479;-66
2024/01/22 01:27:54;;;;;;;27.70;18.67;;;;;;;-1.51;84.77;101526.31;5112442;28;20944;-66
2024/01/22 01:30:21;;;;;;;28.30;18.50;;;;;;;-1.48;85.64;101527.00;5112392;28;20440;-66
2024/01/22 01:32:49;;;;;;;29.73;19.77;;;;;;;-1.46;85.29;101519.97;5112632;28;20437;-66
2024/01/22 01:35:16;;;;;;;31.77;18.40;;;;;;;-1.45;84.50;101536.44;5112170;28;20440;-65
2024/01/22 01:37:43;;;;;;;38.70;20.20;;;;;;;-1.53;85.07;101526.38;5112484;28;20997;-66
2024/01/22 01:40:11;;;;;;;34.87;20.13;;;;;;;-1.66;85.00;101511.38;5112040;28;20468;-66
2024/01/22 01:42:37;;;;;;;35.43;20.30;;;;;;;-1.64;84.29;101526.03;5112227;28;20444;-65
2024/01/22 01:45:04;;;;;;;33.77;20.60;;;;;;;-1.79;84.93;101525.88;5112368;28;20471;-67
2024/01/22 01:47:31;;;;;;;39.13;20.43;;;;;;;-1.72;85.03;101517.72;5112448;28;20486;-64
2024/01/22 01:49:59;;;;;;;31.30;19.03;;;;;;;-1.72;84.63;101511.69;5112369;28;20436;-64
2024/01/22 01:52:26;;;;;;;29.10;19.23;;;;;;;-1.75;84.34;101517.00;5112378;28;20429;-64
2024/01/22 01:54:53;;;;;;;35.60;19.07;;;;;;;-1.81;84.47;101512.06;5111969;28;20452;-64
2024/01/22 01:57:22;;;;;;;25.67;17.97;;;;;;;-1.90;85.56;101502.94;5111643;28;20996;-65
2024/01/22 01:59:50;;;;;;;29.57;18.00;;;;;;;-1.79;85.73;101505.88;5111942;28;20940;-67
2024/01/22 02:02:16;;;;;;;32.47;18.67;;;;;;;-1.76;85.28;101505.75;5111971;28;20467;-65
2024/01/22 02:04:43;;;;;;;30.70;18.47;;;;;;;-1.77;85.33;101503.19;5111405;28;21006;-65
2024/01/22 02:07:12;;;;;;;36.10;22.27;;;;;;;-1.83;85.23;101506.09;5112230;28;20436;-66
2024/01/22 02:09:46;;;;;;;30.83;20.43;;;;;;;-2.01;84.93;101509.50;5112163;28;20489;-64
2024/01/22 02:12:12;;;;;;;28.77;19.90;;;;;;;-2.02;85.78;101513.03;5111883;28;20447;-64
2024/01/22 02:14:39;;;;;;;31.33;19.77;;;;;;;-1.92;85.52;101512.53;5112062;28;20501;-64
2024/01/22 02:17:06;;;;;;;42.77;22.73;;;;;;;-1.90;85.02;101509.88;5112411;28;20440;-64
2024/01/22 02:19:33;;;;;;;31.80;20.30;;;;;;;-1.99;84.56;101512.91;5111717;28;20471;-64
2024/01/22 02:22:00;;;;;;;32.53;19.17;;;;;;;-2.10;84.76;101507.31;5111722;28;20488;-64
2024/01/22 02:24:28;;;;;;;30.43;19.17;;;;;;;-2.13;84.19;101520.44;5111758;28;20476;-64
2024/01/22 02:26:54;;;;;;;27.90;20.40;;;;;;;-2.20;84.06;101513.84;5111996;28;20489;-64
2024/01/22 02:29:21;;;;;;;33.27;20.70;;;;;;;-2.26;84.15;101506.28;5111709;28;20436;-64
2024/01/22 02:31:49;;;;;;;31.63;20.13;;;;;;;-2.16;84.72;101502.38;5111957;28;20432;-64
2024/01/22 02:34:16;;;;;;;29.97;18.90;;;;;;;-2.18;84.15;101492.03;5112058;28;20435;-64
2024/01/22 02:36:44;;;;;;;32.73;20.53;;;;;;;-2.20;84.17;101500.81;5111943;28;20440;-65
2024/01/22 02:39:11;;;;;;;30.70;20.57;;;;;;;-2.22;83.42;101500.88;5111790;28;20538;-65
2024/01/22 02:41:39;;;;;;;24.80;17.63;;;;;;;-2.40;83.29;101506.03;5111613;28;20953;-65
2024/01/22 02:44:06;;;;;;;28.70;17.23;;;;;;;-2.39;83.77;101500.78;5111940;28;20497;-65
2024/01/22 02:46:33;;;;;;;28.07;17.70;;;;;;;-2.31;84.25;101503.91;5111444;28;20471;-64
2024/01/22 02:49:00;;;;;;;29.03;17.90;;;;;;;-2.43;82.86;101500.97;5111621;28;20446;-65
2024/01/22 02:51:27;;;;;;;29.63;18.43;;;;;;;-2.68;83.29;101506.38;5111444;28;20440;-64
2024/01/22 02:53:54;;;;;;;25.00;17.23;;;;;;;-2.65;84.19;101510.59;5111989;28;20440;-64
2024/01/22 02:56:21;;;;;;;26.40;17.10;;;;;;;-2.56;84.70;101499.78;5111674;28;20437;-64
2024/01/22 02:58:49;;;;;;;27.97;16.10;;;;;;;-2.46;84.19;101501.94;5111776;28;20436;-65
2024/01/22 03:01:16;;;;;;;22.23;16.63;;;;;;;-2.40;83.71;101498.22;5111645;28;20881;-64
2024/01/22 03:03:43;;;;;;;23.20;15.43;;;;;;;-2.38;83.81;101501.59;5111935;28;20444;-64
2024/01/22 03:06:10;;;;;;;22.53;15.27;;;;;;;-2.36;83.47;101505.00;5111194;28;20537;-63
2024/01/22 03:08:36;;;;;;;24.23;16.10;;;;;;;-2.48;82.42;101503.78;5111602;28;20948;-64
2024/01/22 03:11:04;;;;;;;23.30;16.27;;;;;;;-2.55;82.98;101506.69;5114419;28;21012;-64
2024/01/22 03:13:31;;;;;;;22.10;15.23;;;;;;;-2.56;83.31;101508.47;5115193;28;20497;-64
2024/01/22 03:15:59;;;;;;;21.13;14.80;;;;;;;-2.59;83.22;101505.97;5114827;28;20881;-64
2024/01/22 03:18:26;;;;;;;26.00;15.03;;;;;;;-2.62;83.15;101513.06;5114831;28;20508;-64
2024/01/22 03:20:52;;;;;;;21.60;15.87;;;;;;;-2.67;83.05;101510.66;5114912;28;20489;-64
2024/01/22 03:23:19;;;;;;;28.93;16.00;;;;;;;-2.62;82.95;101510.47;5114812;28;20437;-63
2024/01/22 03:25:46;;;;;;;31.73;16.93;;;;;;;-2.71;83.16;101509.09;5114894;28;20476;-64
2024/01/22 03:28:12;;;;;;;24.93;17.00;;;;;;;-2.57;83.67;101524.13;5114934;28;20493;-64
2024/01/22 03:30:39;;;;;;;25.07;15.97;;;;;;;-2.50;83.74;101515.13;5114545;28;20436;-64
2024/01/22 03:33:07;;;;;;;24.63;15.90;;;;;;;-2.50;83.67;101522.94;5115293;28;20436;-64
2024/01/22 03:35:34;;;;;;;27.97;17.27;;;;;;;-2.52;83.41;101528.22;5114708;28;20489;-64
2024/01/22 03:38:01;;;;;;;26.40;17.37;;;;;;;-2.53;83.14;101530.88;5114481;28;20440;-64
2024/01/22 03:40:27;;;;;;;26.23;16.43;;;;;;;-2.59;83.62;101523.31;5115029;28;20472;-64
2024/01/22 03:42:54;;;;;;;24.87;17.00;;;;;;;-2.58;84.04;101527.63;5114584;28;20448;-64
2024/01/22 03:45:21;;;;;;;22.47;15.43;;;;;;;-2.50;83.83;101525.53;5113539;28;20529;-64
2024/01/22 03:47:47;;;;;;;21.53;15.97;;;;;;;-2.55;83.47;101536.16;5114591;28;20436;-64
2024/01/22 03:50:16;;;;;;;26.87;16.90;;;;;;;-2.51;83.22;101539.47;5114254;28;20500;-64
2024/01/22 03:52:42;;;;;;;23.10;14.63;;;;;;;-2.52;83.09;101537.78;5114483;28;20497;-64
2024/01/22 03:55:10;;;;;;;21.43;16.17;;;;;;;-2.50;82.77;101536.78;5114176;28;20465;-64
2024/01/22 03:57:37;;;;;;;28.37;16.10;;;;;;;-2.50;82.41;101543.75;5114085;28;20440;-63
2024/01/22 04:00:05;;;;;;;22.90;15.90;;;;;;;-2.52;82.81;101548.19;5114385;28;20444;-63
2024/01/22 04:02:33;;;;;;;23.50;15.30;;;;;;;-2.53;82.90;101546.50;5113909;28;20440;-63
2024/01/22 04:05:00;;;;;;;20.97;14.40;;;;;;;-2.54;83.17;101549.97;5113889;28;20532;-64
2024/01/22 04:07:28;;;;;;;21.50;14.53;;;;;;;-2.53;82.96;101546.50;5114155;28;20436;-64
2024/01/22 04:09:55;;;;;;;23.77;15.47;;;;;;;-2.52;82.68;101549.03;5113993;28;20432;-65
2024/01/22 04:12:21;;;;;;;27.73;17.30;;;;;;;-2.55;81.50;101548.28;5114050;28;20527;-64
2024/01/22 04:14:48;;;;;;;30.00;17.23;;;;;;;-2.52;81.65;101546.44;5113749;28;20509;-64
2024/01/22 04:17:15;;;;;;;22.03;15.27;;;;;;;-2.68;81.60;101547.13;5113909;28;20492;-65
2024/01/22 04:19:43;;;;;;;27.57;15.13;;;;;;;-2.87;80.90;101565.22;5113655;28;20448;-65
2024/01/22 04:22:09;;;;;;;21.80;14.83;;;;;;;-2.95;81.79;101553.41;5113544;28;20433;-65
2024/01/22 04:24:38;;;;;;;22.13;14.30;;;;;;;-3.00;83.23;101547.56;5113614;28;20440;-64
2024/01/22 04:27:05;;;;;;;23.40;15.03;;;;;;;-2.94;82.86;101544.72;5113615;28;20480;-64
2024/01/22 04:29:34;;;;;;;21.30;14.60;;;;;;;-3.04;81.49;101553.78;5113883;28;20444;-62
2024/01/22 04:32:01;;;;;;;26.20;15.87;;;;;;;-3.09;81.32;101560.91;5113511;28;20493;-64
2024/01/22 04:34:27;;;;;;;25.50;15.10;;;;;;;-3.38;82.29;101561.19;5113445;28;20467;-64
2024/01/22 04:36:54;;;;;;;25.40;15.53;;;;;;;-3.61;82.57;101556.00;5113364;28;20440;-64
2024/01/22 04:39:21;;;;;;;24.63;15.03;;;;;;;-3.66;84.53;101552.75;5112976;28;20529;-64
2024/01/22 04:41:49;;;;;;;21.37;13.77;;;;;;;-3.64;85.43;101551.78;5113008;28;20485;-63
2024/01/22 04:44:15;;;;;;;25.50;15.93;;;;;;;-3.57;85.13;101552.38;5112955;28;20501;-65
2024/01/22 04:46:42;;;;;;;24.60;14.10;;;;;;;-3.58;84.99;101550.69;5112517;28;20898;-64
2024/01/22 04:49:10;;;;;;;24.07;16.27;;;;;;;-3.46;84.74;101555.44;5113358;28;20478;-65
2024/01/22 04:51:37;;;;;;;18.20;14.00;;;;;;;-3.44;85.23;101553.66;5112645;28;20454;-64
2024/01/22 04:54:03;;;;;;;24.03;16.23;;;;;;;-3.44;84.78;101558.84;5113314;28;20502;-65
2024/01/22 04:56:30;;;;;;;23.03;15.83;;;;;;;-3.46;85.26;101545.06;5111709;28;20444;-65
2024/01/22 04:58:58;;;;;;;26.17;15.23;;;;;;;-3.43;84.48;101566.56;5112909;28;20440;-64
2024/01/22 05:01:25;;;;;;;30.80;17.67;;;;;;;-3.47;83.90;101567.56;5113263;28;20516;-65
2024/01/22 05:03:52;;;;;;;39.23;25.40;;;;;;;-3.51;83.22;101566.00;5112810;28;20963;-65
2024/01/22 05:06:18;;;;;;;31.70;18.50;;;;;;;-3.51;83.91;101563.38;5112987;28;20472;-65
2024/01/22 05:08:45;;;;;;;36.50;18.57;;;;;;;-3.51;84.64;101562.56;5112938;28;20568;-64
2024/01/22 05:11:12;;;;;;;41.90;20.33;;;;;;;-3.60;84.37;101557.72;5112953;28;20500;-64
2024/01/22 05:13:47;;;;;;;30.63;19.27;;;;;;;-3.75;84.98;101553.94;5112535;28;20444;-63
2024/01/22 05:16:15;;;;;;;27.40;16.43;;;;;;;-3.71;86.40;101559.84;5113253;28;20432;-63
2024/01/22 05:18:42;;;;;;;34.30;18.17;;;;;;;-3.75;84.87;101560.88;5112398;28;20440;-63
2024/01/22 05:21:09;;;;;;;27.20;16.37;;;;;;;-3.78;86.21;101564.41;5111714;28;20473;-68
2024/01/22 05:23:37;;;;;;;27.17;17.70;;;;;;;-3.72;86.21;101563.34;5110789;28;20884;-64
2024/01/22 05:26:04;;;;;;;29.87;18.27;;;;;;;-3.66;86.36;101563.13;5112179;28;20476;-63
2024/01/22 05:28:30;;;;;;;32.07;18.27;;;;;;;-3.63;85.66;101563.84;5112010;28;20510;-64
2024/01/22 05:30:57;;;;;;;32.13;17.97;;;;;;;-3.62;85.40;101564.69;5119069;27;21022;-64
2024/01/22 05:33:25;;;;;;;32.00;18.87;;;;;;;-3.57;86.65;101557.59;5116137;27;20441;-63
2024/01/22 05:35:52;;;;;;;27.63;17.97;;;;;;;-3.52;86.13;101560.88;5107440;28;20494;-63
2024/01/22 05:38:19;;;;;;;32.47;18.27;;;;;;;-3.42;85.81;101560.47;5111306;28;20871;-63
2024/01/22 05:40:46;;;;;;;24.30;17.47;;;;;;;-3.30;85.53;101562.63;5110059;28;20859;-66
2024/01/22 05:43:12;;;;;;;30.47;18.70;;;;;;;-3.27;84.73;101564.25;5111417;28;20436;-67
2024/01/22 05:45:39;;;;;;;29.17;18.40;;;;;;;-3.25;84.16;101559.81;5112121;28;20508;-61
2024/01/22 05:48:07;;;;;;;32.63;17.43;;;;;;;-3.27;83.75;101566.84;5110989;28;20433;-64
2024/01/22 05:50:35;;;;;;;40.40;18.70;;;;;;;-3.26;83.32;101571.13;5111756;28;20618;-62
2024/01/22 05:53:02;;;;;;;37.60;19.40;;;;;;;-3.38;82.66;101569.00;5112246;28;20432;-64
2024/01/22 05:55:29;;;;;;;32.53;18.87;;;;;;;-3.44;84.03;101569.22;5111596;28;20441;-63
2024/01/22 05:57:56;;;;;;;31.27;17.73;;;;;;;-3.45;83.80;101562.31;5111628;28;20862;-64
2024/01/22 06:00:23;;;;;;;34.63;18.90;;;;;;;-3.45;84.00;101567.50;5111977;28;20820;-63
2024/01/22 06:02:50;;;;;;;32.83;19.30;;;;;;;-3.49;83.50;101568.53;5111645;28;20437;-63
2024/01/22 06:05:16;;;;;;;36.90;18.00;;;;;;;-3.63;83.53;101573.41;5111583;28;20443;-64
2024/01/22 06:07:44;;;;;;;31.13;17.87;;;;;;;-3.63;84.24;101569.03;5108946;28;20505;-62
2024/01/22 06:10:12;;;;;;;46.17;25.53;;;;;;;-3.52;84.78;101566.91;5110043;28;20440;-64
2024/01/22 06:12:38;;;;;;;38.83;26.10;;;;;;;-3.47;84.96;101571.94;5111745;28;20476;-63
2024/01/22 06:15:07;;;;;;;36.80;18.30;;;;;;;-3.32;84.60;101573.94;5110935;28;20827;-63
2024/01/22 06:17:33;;;;;;;24.73;16.57;;;;;;;-3.30;82.79;101577.34;5111063;28;21049;-64
2024/01/22 06:20:01;;;;;;;34.20;17.20;;;;;;;-3.23;83.35;101581.41;5111505;28;20457;-63
2024/01/22 06:22:28;;;;;;;27.80;18.10;;;;;;;-3.03;82.89;101597.09;5110872;28;20444;-65
2024/01/22 06:24:56;;;;;;;23.47;15.67;;;;;;;-2.98;82.29;101588.19;5111147;28;20449;-63
2024/01/22 06:27:23;;;;;;;21.93;15.30;;;;;;;-2.72;81.63;101589.75;5109489;28;20521;-65
2024/01/22 06:29:49;;;;;;;24.97;17.03;;;;;;;-2.45;81.25;101586.03;5108891;28;20444;-64
2024/01/22 06:32:18;;;;;;;27.07;15.53;;;;;;;-2.14;80.34;101602.06;5110254;28;20869;-62
2024/01/22 06:34:46;;;;;;;29.73;15.13;;;;;;;-2.24;78.07;101608.56;5109666;28;20489;-64
2024/01/22 06:37:13;;;;;;;25.13;15.00;;;;;;;-2.26;78.77;101597.38;5108207;28;20451;-62
2024/01/22 06:39:39;;;;;;;22.83;14.30;;;;;;;-1.72;81.59;101597.63;5107714;28;20480;-65
2024/01/22 06:42:08;;;;;;;23.63;14.80;;;;;;;-0.97;82.02;101600.19;5108337;28;20865;-65
2024/01/22 06:44:35;;;;;;;24.83;14.70;;;;;;;-0.78;76.82;101619.28;5103837;28;20448;-63
2024/01/22 06:47:01;;;;;;;27.40;15.70;;;;;;;-0.76;75.91;101616.59;5112800;28;20471;-63
2024/01/22 06:49:27;;;;;;;24.87;16.27;;;;;;;-0.90;74.17;101619.03;5110209;28;20448;-62
2024/01/22 06:51:54;;;;;;;28.47;16.67;;;;;;;-0.71;74.43;101614.59;5108307;28;20444;-62
2024/01/22 06:54:20;;;;;;;25.50;18.23;;;;;;;-0.81;73.13;101619.41;5112860;28;20706;-62
2024/01/22 06:56:47;;;;;;;36.07;21.00;;;;;;;-1.06;73.44;101620.66;5114530;28;20436;-61
2024/01/22 06:59:15;;;;;;;31.10;16.73;;;;;;;-1.22;75.73;101617.06;5110426;28;20473;-62
2024/01/22 07:01:42;;;;;;;27.00;16.73;;;;;;;-1.35;72.75;101626.34;5113602;28;20424;-63
2024/01/22 07:04:09;;;;;;;34.30;18.37;;;;;;;-1.44;73.92;101632.81;5114418;28;20468;-60
2024/01/22 07:06:36;;;;;;;47.10;26.97;;;;;;;-1.44;75.26;101624.13;5112592;28;20472;-63
2024/01/22 07:09:03;;;;;;;70.70;36.77;;;;;;;-1.26;74.59;101626.75;5114459;28;20468;-61
2024/01/22 07:11:30;;;;;;;68.93;40.43;;;;;;;-1.10;74.50;101638.19;5114489;28;20497;-63
2024/01/22 07:13:56;;;;;;;32.30;20.63;;;;;;;-0.59;73.34;101640.13;5114431;28;20505;-62
2024/01/22 07:16:25;;;;;;;22.17;14.97;;;;;;;-0.11;72.64;101627.28;5114537;28;20501;-62
2024/01/22 07:18:51;;;;;;;16.53;12.97;;;;;;;0.02;68.83;101654.47;5094063;28;20761;-61
2024/01/22 07:21:18;;;;;;;27.00;16.10;;;;;;;0.03;69.05;101651.78;5102034;28;20509;-62
2024/01/22 07:23:45;;;;;;;28.87;18.53;;;;;;;0.19;70.67;101651.03;5113877;28;20813;-61
2024/01/22 07:26:12;;;;;;;27.37;17.03;;;;;;;0.71;70.35;101653.47;5114300;28;20475;-62
2024/01/22 07:28:39;;;;;;;21.93;14.70;;;;;;;0.87;67.96;101659.59;5113989;28;20982;-61
2024/01/22 07:31:05;;;;;;;23.23;16.40;;;;;;;1.04;67.75;101654.28;5114434;28;20433;-61
2024/01/22 07:33:33;;;;;;;24.47;15.37;;;;;;;1.35;68.24;101659.50;5114756;28;20441;-63
2024/01/22 07:36:00;;;;;;;23.67;15.00;;;;;;;1.50;65.24;101663.91;5114755;28;20535;-61
2024/01/22 07:38:27;;;;;;;18.87;14.23;;;;;;;2.00;70.99;101638.28;5114238;28;20853;-60
2024/01/22 07:40:53;;;;;;;18.67;14.03;;;;;;;2.46;64.16;101663.50;5114889;28;20467;-63
2024/01/22 07:43:20;;;;;;;21.97;15.10;;;;;;;2.20;64.57;101663.34;5111509;28;21000;-62
2024/01/22 07:45:47;;;;;;;22.53;15.40;;;;;;;2.31;64.90;101653.91;5114011;28;20505;-62
2024/01/22 07:48:14;;;;;;;26.73;15.63;;;;;;;2.26;63.37;101663.81;5113851;28;20943;-61
2024/01/22 07:50:42;;;;;;;27.07;15.33;;;;;;;2.12;64.56;101648.03;5114682;28;20436;-62
2024/01/22 07:53:09;;;;;;;21.70;13.57;;;;;;;2.02;62.24;101652.16;5114220;28;20465;-62
2024/01/22 07:55:36;;;;;;;25.53;15.73;;;;;;;1.89;64.18;101643.31;5110255;28;20505;-63
2024/01/22 07:58:03;;;;;;;23.00;14.37;;;;;;;1.92;65.54;101637.88;5105860;28;21000;-63
2024/01/22 08:00:33;;;;;;;19.13;15.23;;;;;;;2.29;65.53;101647.06;5112849;28;20951;-63
2024/01/22 08:03:01;;;;;;;20.27;14.53;;;;;;;2.89;64.92;101646.81;5110381;28;20461;-63
2024/01/22 08:05:28;;;;;;;20.97;14.90;;;;;;;3.46;61.09;101647.53;5112461;28;20443;-64
2024/01/22 08:07:56;;;;;;;17.30;13.20;;;;;;;3.67;61.07;101651.41;5113988;28;20481;-66
2024/01/22 08:10:22;;;;;;;22.00;14.40;;;;;;;3.94;59.08;101645.22;5114109;28;20440;-64
2024/01/22 08:12:49;;;;;;;14.13;11.83;;;;;;;4.25;58.09;101647.47;5111998;28;20448;-64
2024/01/22 08:15:17;;;;;;;19.00;12.03;;;;;;;4.20;54.22;101657.44;5113080;28;20230;-65
2024/01/22 08:17:45;;;;;;;18.37;12.90;;;;;;;4.06;56.56;101644.41;5109605;28;20648;-64
2024/01/22 08:20:13;;;;;;;20.87;13.50;;;;;;;4.05;57.67;101640.06;5113484;28;20191;-65
2024/01/22 08:22:40;;;;;;;17.63;12.67;;;;;;;3.91;55.93;101640.16;5113343;28;20523;-66
2024/01/22 08:25:09;;;;;;;15.97;12.40;;;;;;;3.54;56.76;101640.88;5113778;28;20198;-65
2024/01/22 08:27:36;;;;;;;14.90;13.17;;;;;;;3.21;58.16;101629.03;5112733;28;20273;-65
2024/01/22 08:30:03;;;;;;;18.20;13.03;;;;;;;3.48;59.19;101636.00;5112792;28;20443;-65
2024/01/22 08:32:29;;;;;;;17.03;13.00;;;;;;;3.44;59.28;101624.00;5112934;28;20872;-65
2024/01/22 08:34:56;;;;;;;15.03;12.87;;;;;;;3.78;61.61;101618.25;5113288;28;20498;-65
2024/01/22 08:37:23;;;;;;;15.97;11.67;;;;;;;4.00;57.90;101623.75;5112986;28;20444;-65
2024/01/22 08:39:50;;;;;;;19.40;12.80;;;;;;;3.92;57.79;101633.13;5113514;28;20310;-64
2024/01/22 08:42:18;;;;;;;22.67;14.03;;;;;;;3.70;59.83;101625.78;5112448;28;20743;-64
2024/01/22 08:44:44;;;;;;;21.33;15.53;;;;;;;3.68;61.39;101617.16;5112871;28;20428;-64
2024/01/22 08:47:11;;;;;;;21.60;14.33;;;;;;;3.68;61.70;101614.53;5112630;28;20226;-63
2024/01/22 08:49:38;;;;;;;15.83;12.90;;;;;;;3.65;61.21;101617.38;5112957;28;20444;-65
2024/01/22 08:52:05;;;;;;;18.27;13.57;;;;;;;4.04;60.06;101617.34;5112503;28;20505;-63
2024/01/22 08:54:32;;;;;;;17.50;12.30;;;;;;;4.57;60.30;101613.69;5112517;28;20504;-65
2024/01/22 08:56:58;;;;;;;19.77;14.10;;;;;;;4.50;59.25;101610.63;5112056;28;20869;-65
2024/01/22 08:59:27;;;;;;;21.43;15.20;;;;;;;4.23;59.43;101612.53;5112345;28;20194;-64
2024/01/22 09:01:53;;;;;;;18.73;14.03;;;;;;;4.21;59.06;101603.91;5112652;28;20556;-64
2024/01/22 09:07:01;;;;;;;26.70;15.60;;;;;;;4.83;59.92;101592.47;5109718;28;20218;-64
2024/01/22 09:09:27;;;;;;;19.63;16.10;;;;;;;5.27;58.20;101594.59;5109153;28;20253;-66
2024/01/22 09:11:54;;;;;;;22.73;16.90;;;;;;;5.27;59.05;101587.53;5111633;28;20186;-66
2024/01/22 09:14:21;;;;;;;19.30;13.57;;;;;;;5.15;55.46;101583.13;5111841;28;20622;-66
2024/01/22 09:16:49;;;;;;;18.73;13.03;;;;;;;5.08;54.32;101581.06;5109161;28;20194;-65
2024/01/22 09:19:15;;;;;;;14.63;10.53;;;;;;;4.84;54.47;101594.19;5111654;28;20194;-65
2024/01/22 09:21:43;;;;;;;17.87;11.90;;;;;;;4.24;54.36;101585.28;5111249;28;20194;-65
2024/01/22 09:24:10;;;;;;;13.83;10.60;;;;;;;4.12;56.27;101585.25;5112686;28;20198;-65
2024/01/22 09:26:37;;;;;;;16.70;9.70;;;;;;;4.05;56.90;101571.69;5109785;28;20444;-65
2024/01/22 09:29:03;;;;;;;11.23;9.10;;;;;;;4.16;57.12;101574.44;5111705;28;20981;-64
2024/01/22 09:31:30;;;;;;;12.30;9.90;;;;;;;4.20;57.38;101570.66;5112367;28;20255;-66
2024/01/22 09:33:58;;;;;;;11.57;10.43;;;;;;;4.63;58.04;101566.75;5109787;28;20288;-66
2024/01/22 09:36:25;;;;;;;14.83;10.30;;;;;;;4.78;55.71;101565.66;5111771;28;20194;-65
2024/01/22 09:38:52;;;;;;;12.17;9.63;;;;;;;4.89;56.70;101562.25;5112362;28;20436;-65
2024/01/22 09:41:19;;;;;;;13.10;11.73;;;;;;;5.02;56.53;101561.25;5112320;28;20218;-67
2024/01/22 09:43:47;;;;;;;17.23;11.10;;;;;;;4.62;56.46;101544.00;5107034;28;20186;-64
2024/01/22 09:46:14;;;;;;;15.33;10.47;;;;;;;4.47;57.65;101549.50;5110179;28;20195;-65
2024/01/22 09:48:41;;;;;;;15.57;11.60;;;;;;;4.52;57.38;101542.97;5102586;28;20210;-68
2024/01/22 09:51:12;;;;;;;16.33;12.00;;;;;;;4.55;58.53;101537.50;5109222;28;20288;-65
2024/01/22 09:53:43;;;;;;;14.43;10.20;;;;;;;4.47;58.57;101539.81;5111528;28;20179;-66
2024/01/22 09:56:11;;;;;;;15.03;9.90;;;;;;;4.78;58.50;101534.06;5112443;28;20209;-65
2024/01/22 09:58:43;;;;;;;18.20;10.47;;;;;;;5.02;56.79;101529.66;5109082;28;20202;-65
2024/01/22 10:01:11;;;;;;;15.03;10.30;;;;;;;5.15;55.39;101532.25;5111398;28;20187;-65
2024/01/22 10:03:39;;;;;;;14.20;11.00;;;;;;;4.99;55.30;101521.97;5121796;28;20221;-65
2024/01/22 10:06:06;;;;;;;12.33;10.17;;;;;;;4.92;56.67;101519.91;5131525;28;20196;-65
2024/01/22 10:08:34;;;;;;;14.73;10.53;;;;;;;5.23;54.61;101519.38;5110279;28;20222;-66
2024/01/22 10:11:03;;;;;;;10.17;9.17;;;;;;;5.27;55.14;101511.13;5109530;28;20194;-64
2024/01/22 10:13:30;;;;;;;10.90;9.97;;;;;;;5.59;52.11;101506.94;5108328;28;20204;-67
2024/01/22 10:16:10;;;;;;;10.10;9.07;;;;;;;5.42;51.78;101504.72;5109405;28;20227;-67
2024/01/22 10:18:37;;;;;;;11.70;9.90;;;;;;;5.67;53.01;101499.28;5112600;28;20190;-66
2024/01/22 10:21:04;;;;;;;16.10;10.93;;;;;;;5.98;52.50;101491.69;5115499;28;20191;-66
2024/01/22 10:23:31;;;;;;;10.10;9.07;;;;;;;5.92;51.55;101492.19;5116080;28;20190;-66
2024/01/22 10:26:09;;;;;;;11.73;10.63;;;;;;;5.76;51.29;101488.03;5116289;28;20635;-65
2024/01/22 10:28:36;;;;;;;16.37;11.23;;;;;;;5.86;52.45;101477.66;5114804;28;20778;-65
2024/01/22 10:31:05;;;;;;;12.53;9.90;;;;;;;6.17;52.31;101468.22;5115592;28;20191;-65
2024/01/22 10:33:32;;;;;;;10.33;9.23;;;;;;;6.50;51.62;101473.47;5114963;28;20220;-65
2024/01/22 10:36:14;;;;;;;9.23;8.33;;;;;;;6.50;49.58;101473.47;5115755;28;20190;-65
2024/01/22 10:38:41;;;;;;;9.73;8.50;;;;;;;6.63;50.72;101474.16;5115873;28;20206;-65
2024/01/22 10:41:16;;;;;;;8.70;7.83;;;;;;;6.65;50.26;101475.72;5115762;28;20234;-66
2024/01/22 10:43:44;;;;;;;10.40;9.23;;;;;;;6.81;51.54;101462.97;5115279;28;20190;-65
2024/01/22 10:46:13;;;;;;;11.67;9.13;;;;;;;6.15;49.18;101463.06;5114636;28;20256;-65
2024/01/22 10:48:41;;;;;;;14.90;9.83;;;;;;;6.10;50.89;101464.38;5114544;28;20223;-66
2024/01/22 10:51:09;;;;;;;12.33;10.10;;;;;;;6.06;52.05;101452.38;5112715;28;20191;-65
2024/01/22 10:53:37;;;;;;;11.07;9.87;;;;;;;6.17;51.13;101449.75;5112058;28;20239;-64
2024/01/22 10:56:10;;;;;;;12.43;9.90;;;;;;;6.11;52.25;101444.94;5114903;28;20248;-65
2024/01/22 10:58:41;;;;;;;11.33;9.33;;;;;;;6.41;53.48;101453.91;5115123;28;20187;-66
2024/01/22 11:01:12;;;;;;;13.80;11.33;;;;;;;6.48;52.46;101455.13;5114892;28;20214;-66
2024/01/22 11:03:44;;;;;;;12.53;10.37;;;;;;;6.59;52.54;101441.06;5115269;28;20214;-65
2024/01/22 11:06:15;;;;;;;9.80;8.77;;;;;;;6.74;51.93;101442.47;5114979;28;20178;-66
2024/01/22 11:08:43;;;;;;;10.37;9.00;;;;;;;6.76;51.78;101446.66;5114998;28;20222;-66
2024/01/22 11:11:13;;;;;;;10.67;9.57;;;;;;;6.83;53.54;101444.34;5115075;28;20335;-68
2024/01/22 11:13:41;;;;;;;10.63;8.60;;;;;;;6.94;53.20;101436.41;5114119;28;20666;-67
2024/01/22 11:16:09;;;;;;;11.00;10.00;;;;;;;6.93;52.35;101440.00;5114053;28;20662;-65